createdAt,value
2022-10-26T00:01:18.317Z,3.23
2022-10-26T00:04:07.115Z,3.67
2022-10-26T00:09:44.145Z,4.10
2022-10-26T00:18:13.540Z,5.27
2022-10-26T00:21:05.343Z,4.70
2022-10-26T00:26:36.803Z,3.20
2022-10-26T00:32:15.069Z,2.73
2022-10-26T00:35:10.726Z,2.87
2022-10-26T00:40:53.712Z,2.07
2022-10-26T00:46:31.132Z,2.63
2022-10-26T00:52:04.750Z,2.47
2022-10-26T00:57:32.916Z,2.10
2022-10-26T01:03:08.978Z,1.60
2022-10-26T01:08:43.180Z,1.77
2022-10-26T01:20:26.662Z,1.90
2022-10-26T01:26:47.688Z,2.20
2022-10-26T01:32:38.438Z,4.13
2022-10-26T01:38:16.753Z,5.90
2022-10-26T01:44:00.787Z,7.30
2022-10-26T01:49:37.607Z,9.20
2022-10-26T01:52:26.101Z,9.90
2022-10-26T01:55:46.282Z,9.47
2022-10-26T02:02:36.824Z,10.67
2022-10-26T02:08:34.171Z,12.43
2022-10-26T02:14:16.509Z,13.83
2022-10-26T02:22:41.013Z,13.20
2022-10-26T02:36:42.581Z,10.97
2022-10-26T02:42:12.221Z,10.83
2022-10-26T02:45:03.431Z,11.00
2022-10-26T02:50:44.531Z,11.77
2022-10-26T02:56:37.756Z,13.30
2022-10-26T03:02:14.726Z,11.13
2022-10-26T03:07:53.986Z,11.33
2022-10-26T03:13:23.072Z,9.00
2022-10-26T03:19:00.484Z,7.23
2022-10-26T03:27:16.225Z,5.70
2022-10-26T03:30:05.542Z,5.23
2022-10-26T03:35:39.506Z,5.90
2022-10-26T03:38:28.128Z,4.73
2022-10-26T03:41:17.788Z,5.60
2022-10-26T03:46:47.064Z,5.97
2022-10-26T03:49:36.074Z,5.00
2022-10-26T03:55:03.937Z,4.20
2022-10-26T04:00:33.482Z,3.10
2022-10-26T04:06:03.707Z,3.40
2022-10-26T04:08:54.036Z,3.00
2022-10-26T04:17:18.415Z,2.60
2022-10-26T04:23:03.230Z,2.40
2022-10-26T04:28:52.544Z,2.50
2022-10-26T04:39:45.160Z,4.10
2022-10-26T04:42:35.367Z,4.33
2022-10-26T04:45:30.869Z,5.47
2022-10-26T04:48:20.175Z,5.70
2022-10-26T04:53:58.036Z,5.93
2022-10-26T05:02:11.502Z,5.40
2022-10-26T05:10:36.910Z,4.70
2022-10-26T05:18:50.534Z,3.83
2022-10-26T05:24:27.917Z,2.33
2022-10-26T05:27:16.174Z,2.00
2022-10-26T05:32:56.322Z,2.40
2022-10-26T05:38:31.300Z,2.27
2022-10-26T05:44:00.425Z,1.90
2022-10-26T05:52:25.992Z,2.13
2022-10-26T05:58:03.261Z,2.50
2022-10-26T06:01:00.129Z,2.60
2022-10-26T06:06:52.037Z,3.43
2022-10-26T06:09:42.111Z,3.40
2022-10-26T06:18:05.072Z,3.70
2022-10-26T06:23:44.888Z,3.47
2022-10-26T06:32:10.057Z,2.80
2022-10-26T06:37:46.950Z,2.90
2022-10-26T06:43:29.897Z,2.90
2022-10-26T06:46:25.887Z,3.57
2022-10-26T06:49:20.623Z,3.37
2022-10-26T06:52:14.958Z,3.03
2022-10-26T06:57:51.078Z,3.47
2022-10-26T07:00:40.930Z,3.43
2022-10-26T07:08:56.375Z,3.50
2022-10-26T07:20:04.352Z,3.57
2022-10-26T07:25:46.070Z,3.50
2022-10-26T07:31:17.239Z,3.30
2022-10-26T07:34:06.156Z,3.20
2022-10-26T07:36:54.137Z,3.70
2022-10-26T07:42:31.662Z,3.60
2022-10-26T07:48:02.958Z,3.97
2022-10-26T07:53:35.284Z,4.73
2022-10-26T08:01:51.668Z,4.40
2022-10-26T08:10:23.413Z,4.50
2022-10-26T08:16:02.059Z,5.23
2022-10-26T08:24:23.798Z,3.70
2022-10-26T08:29:53.503Z,5.63
2022-10-26T08:35:27.662Z,5.20
2022-10-26T08:40:59.949Z,5.10
2022-10-26T08:46:30.990Z,5.27
2022-10-26T08:49:24.238Z,5.13
2022-10-26T08:52:15.953Z,4.90
2022-10-26T08:55:06.480Z,4.63
2022-10-26T08:57:55.544Z,4.13
2022-10-26T09:00:44.252Z,3.07
2022-10-26T09:09:13.211Z,2.10
2022-10-26T09:14:54.394Z,2.13
2022-10-26T09:24:03.383Z,1.60
2022-10-26T09:29:40.840Z,1.80
2022-10-26T09:35:23.964Z,2.20
2022-10-26T09:41:11.279Z,2.10
2022-10-26T09:44:02.841Z,2.13
2022-10-26T09:49:40.676Z,1.90
2022-10-26T09:52:29.141Z,2.13
2022-10-26T09:55:20.405Z,1.60
2022-10-26T10:04:23.380Z,1.60
2022-10-26T10:07:18.492Z,2.03
2022-10-26T10:15:55.162Z,1.83
2022-10-26T10:21:36.439Z,1.70
2022-10-26T10:27:15.201Z,1.90
2022-10-26T10:33:16.896Z,1.50
2022-10-26T10:36:08.614Z,1.60
2022-10-26T10:41:38.873Z,1.60
2022-10-26T10:47:13.910Z,1.50
2022-10-26T10:52:53.098Z,1.90
2022-10-26T10:55:43.410Z,1.80
2022-10-26T11:01:24.850Z,1.80
2022-10-26T11:04:30.256Z,2.50
2022-10-26T11:10:05.832Z,2.17
2022-10-26T11:15:45.175Z,2.37
2022-10-26T11:21:24.422Z,2.40
2022-10-26T11:24:19.432Z,2.60
2022-10-26T11:29:59.000Z,2.50
2022-10-26T11:32:50.339Z,2.70
2022-10-26T11:38:28.092Z,2.20
2022-10-26T11:46:46.092Z,2.67
2022-10-26T11:52:23.491Z,2.60
2022-10-26T11:57:57.299Z,3.27
2022-10-26T12:03:33.437Z,2.83
2022-10-26T12:06:24.185Z,2.80
2022-10-26T12:14:52.458Z,2.50
2022-10-26T12:17:43.914Z,3.27
2022-10-26T12:20:55.180Z,2.83
2022-10-26T12:29:39.613Z,3.00
2022-10-26T12:35:46.199Z,2.27
2022-10-26T12:39:00.835Z,3.17
2022-10-26T12:44:41.090Z,2.37
2022-10-26T12:48:10.710Z,2.80
2022-10-26T12:50:58.639Z,2.30
2022-10-26T12:56:36.302Z,2.20
2022-10-26T13:02:31.402Z,2.10
2022-10-26T13:08:16.309Z,2.40
2022-10-26T13:13:57.345Z,2.20
2022-10-26T13:16:47.339Z,2.60
2022-10-26T13:25:07.411Z,2.93
2022-10-26T13:30:49.889Z,2.50
2022-10-26T13:33:39.426Z,2.50
2022-10-26T13:44:58.561Z,1.97
2022-10-26T13:50:45.407Z,2.00
2022-10-26T13:53:41.376Z,1.80
2022-10-26T13:59:16.298Z,2.37
2022-10-26T14:05:18.847Z,2.83
2022-10-26T14:08:08.081Z,3.13
2022-10-26T14:10:59.067Z,2.10
2022-10-26T14:16:35.891Z,2.17
2022-10-26T14:22:27.636Z,2.00
2022-10-26T14:25:31.026Z,2.33
2022-10-26T14:31:30.235Z,2.03
2022-10-26T14:37:02.219Z,1.97
2022-10-26T14:42:33.632Z,2.30
2022-10-26T14:48:22.949Z,2.00
2022-10-26T14:51:14.414Z,2.17
2022-10-26T14:56:49.198Z,2.07
2022-10-26T15:02:26.710Z,1.60
2022-10-26T15:09:15.642Z,2.00
2022-10-26T15:12:06.900Z,1.97
2022-10-26T15:17:38.582Z,1.70
2022-10-26T15:23:15.625Z,1.57
2022-10-26T15:31:34.171Z,1.70
2022-10-26T15:37:10.330Z,1.60
2022-10-26T15:42:53.162Z,1.33
2022-10-26T15:48:30.418Z,1.50
2022-10-26T15:51:18.465Z,1.33
2022-10-26T15:56:48.445Z,1.47
2022-10-26T16:05:09.198Z,2.47
2022-10-26T16:10:43.822Z,1.83
2022-10-26T16:16:21.929Z,1.43
2022-10-26T16:19:31.404Z,1.50
2022-10-26T16:25:00.446Z,1.93
2022-10-26T16:30:48.688Z,2.60
2022-10-26T16:36:33.921Z,2.13
2022-10-26T16:42:21.412Z,1.90
2022-10-26T16:45:15.121Z,2.40
2022-10-26T16:51:06.574Z,2.33
2022-10-26T16:57:26.102Z,2.10
2022-10-26T17:00:18.084Z,2.03
2022-10-26T17:03:06.528Z,2.20
2022-10-26T17:05:59.255Z,2.00
2022-10-26T17:11:48.698Z,2.13
2022-10-26T17:20:17.809Z,2.90
2022-10-26T17:23:06.392Z,2.03
2022-10-26T17:28:37.470Z,2.97
2022-10-26T17:31:27.150Z,2.30
2022-10-26T17:37:03.769Z,2.80
2022-10-26T17:42:40.239Z,2.87
2022-10-26T17:45:28.868Z,3.17
2022-10-26T17:48:17.297Z,2.77
2022-10-26T17:54:06.405Z,2.60
2022-10-26T17:56:57.715Z,2.57
2022-10-26T18:02:38.972Z,2.87
2022-10-26T18:05:29.022Z,2.80
2022-10-26T18:08:17.857Z,2.90
2022-10-26T18:11:07.358Z,2.80
2022-10-26T18:16:50.447Z,3.10
2022-10-26T18:22:30.322Z,3.07
2022-10-26T18:28:09.170Z,3.03
2022-10-26T18:33:43.938Z,2.83
2022-10-26T18:36:32.335Z,3.20
2022-10-26T18:42:09.601Z,2.60
2022-10-26T18:45:00.639Z,2.43
2022-10-26T18:53:21.071Z,2.70
2022-10-26T18:58:55.317Z,2.70
2022-10-26T19:01:45.661Z,3.00
2022-10-26T19:04:34.470Z,2.57
2022-10-26T19:07:23.128Z,3.00
2022-10-26T19:12:59.699Z,3.30
2022-10-26T19:18:38.717Z,3.57
2022-10-26T19:24:19.484Z,2.73
2022-10-26T19:29:57.374Z,2.80
2022-10-26T19:49:29.907Z,2.83
2022-10-26T19:52:19.359Z,2.70
2022-10-26T19:55:10.209Z,3.00
2022-10-26T20:00:49.504Z,2.97
2022-10-26T20:06:32.871Z,2.77
2022-10-26T20:12:04.827Z,2.50
2022-10-26T20:14:53.537Z,2.37
2022-10-26T20:23:31.818Z,2.73
2022-10-26T20:29:14.260Z,2.90
2022-10-26T20:32:05.801Z,2.67
2022-10-26T20:37:46.023Z,2.77
2022-10-26T20:46:13.581Z,2.57
2022-10-26T20:49:02.998Z,3.63
2022-10-26T20:55:02.159Z,2.60
2022-10-26T21:00:37.791Z,2.87
2022-10-26T21:03:27.509Z,3.17
2022-10-26T21:09:01.392Z,3.00
2022-10-26T21:11:52.647Z,2.60
2022-10-26T21:17:27.861Z,2.73
2022-10-26T21:23:02.942Z,3.30
2022-10-26T21:28:42.076Z,3.33
2022-10-26T21:34:18.003Z,2.83
2022-10-26T21:40:11.735Z,2.73
2022-10-26T21:43:19.272Z,2.90
2022-10-26T21:46:08.532Z,2.80
2022-10-26T21:51:35.074Z,4.63
2022-10-26T21:57:11.452Z,3.23
2022-10-26T22:05:24.953Z,2.67
2022-10-26T22:13:41.287Z,3.83
2022-10-26T22:16:30.867Z,3.20
2022-10-26T22:22:02.052Z,3.10
2022-10-26T22:27:39.137Z,3.50
2022-10-26T22:33:13.027Z,3.60
2022-10-26T22:38:53.377Z,3.97
2022-10-26T22:41:42.671Z,3.20
2022-10-26T22:50:00.680Z,3.27
2022-10-26T22:55:40.204Z,3.20
2022-10-26T23:01:18.352Z,3.40
2022-10-26T23:06:56.904Z,3.37
2022-10-26T23:12:29.096Z,3.37
2022-10-26T23:18:03.501Z,2.93
2022-10-26T23:23:31.558Z,3.10
2022-10-26T23:26:22.020Z,2.70
2022-10-26T23:29:11.344Z,2.87
2022-10-26T23:34:43.178Z,3.23
2022-10-26T23:37:31.772Z,2.83
2022-10-26T23:43:00.234Z,3.17
2022-10-26T23:51:25.057Z,3.10
2022-10-26T23:57:00.462Z,3.03
